sensor_id;sensor_type;location;lat;lon;timestamp;P1;durP1;ratioP1;P2;durP2;ratioP2
12306;SDS011;6216;51.146;7.008;2022-12-05T00:01:58;5.13;;;4.47;;
12306;SDS011;6216;51.146;7.008;2022-12-05T00:04:27;6.87;;;5.13;;
12306;SDS011;6216;51.146;7.008;2022-12-05T00:06:55;6.07;;;4.40;;
12306;SDS011;6216;51.146;7.008;2022-12-05T00:09:23;5.13;;;4.60;;
12306;SDS011;6216;51.146;7.008;2022-12-05T00:11:52;6.27;;;4.63;;
12306;SDS011;6216;51.146;7.008;2022-12-05T00:14:20;6.30;;;4.23;;
12306;SDS011;6216;51.146;7.008;2022-12-05T00:16:48;7.53;;;5.03;;
12306;SDS011;6216;51.146;7.008;2022-12-05T00:19:15;8.37;;;5.40;;
12306;SDS011;6216;51.146;7.008;2022-12-05T00:21:44;6.07;;;4.70;;
12306;SDS011;6216;51.146;7.008;2022-12-05T00:24:12;7.17;;;4.27;;
12306;SDS011;6216;51.146;7.008;2022-12-05T00:26:42;5.90;;;5.07;;
12306;SDS011;6216;51.146;7.008;2022-12-05T00:29:11;5.03;;;4.53;;
12306;SDS011;6216;51.146;7.008;2022-12-05T00:31:39;7.27;;;4.57;;
12306;SDS011;6216;51.146;7.008;2022-12-05T00:34:08;7.63;;;4.97;;
12306;SDS011;6216;51.146;7.008;2022-12-05T00:36:36;4.87;;;4.37;;
12306;SDS011;6216;51.146;7.008;2022-12-05T00:39:05;6.10;;;4.37;;
12306;SDS011;6216;51.146;7.008;2022-12-05T00:41:34;4.50;;;4.10;;
12306;SDS011;6216;51.146;7.008;2022-12-05T00:44:02;5.77;;;4.60;;
12306;SDS011;6216;51.146;7.008;2022-12-05T00:46:33;9.67;;;5.23;;
12306;SDS011;6216;51.146;7.008;2022-12-05T00:49:02;4.53;;;4.07;;
12306;SDS011;6216;51.146;7.008;2022-12-05T00:51:31;5.30;;;4.20;;
12306;SDS011;6216;51.146;7.008;2022-12-05T00:54:02;5.60;;;4.90;;
12306;SDS011;6216;51.146;7.008;2022-12-05T00:56:32;6.77;;;4.47;;
12306;SDS011;6216;51.146;7.008;2022-12-05T00:59:00;9.07;;;4.63;;
12306;SDS011;6216;51.146;7.008;2022-12-05T01:01:30;4.70;;;4.30;;
12306;SDS011;6216;51.146;7.008;2022-12-05T01:04:01;5.93;;;3.83;;
12306;SDS011;6216;51.146;7.008;2022-12-05T01:06:31;4.70;;;4.20;;
12306;SDS011;6216;51.146;7.008;2022-12-05T01:08:59;5.53;;;4.90;;
12306;SDS011;6216;51.146;7.008;2022-12-05T01:11:27;5.23;;;4.73;;
12306;SDS011;6216;51.146;7.008;2022-12-05T01:13:56;5.03;;;4.57;;
12306;SDS011;6216;51.146;7.008;2022-12-05T01:16:25;5.13;;;4.20;;
12306;SDS011;6216;51.146;7.008;2022-12-05T01:18:55;5.37;;;4.57;;
12306;SDS011;6216;51.146;7.008;2022-12-05T01:21:26;4.57;;;4.17;;
12306;SDS011;6216;51.146;7.008;2022-12-05T01:23:54;8.50;;;4.17;;
12306;SDS011;6216;51.146;7.008;2022-12-05T01:26:22;4.50;;;4.10;;
12306;SDS011;6216;51.146;7.008;2022-12-05T01:28:51;4.87;;;4.40;;
12306;SDS011;6216;51.146;7.008;2022-12-05T01:31:21;6.57;;;4.00;;
12306;SDS011;6216;51.146;7.008;2022-12-05T01:33:51;5.33;;;4.70;;
12306;SDS011;6216;51.146;7.008;2022-12-05T01:36:21;5.30;;;4.10;;
12306;SDS011;6216;51.146;7.008;2022-12-05T01:38:50;5.47;;;4.80;;
12306;SDS011;6216;51.146;7.008;2022-12-05T01:41:20;4.60;;;4.20;;
12306;SDS011;6216;51.146;7.008;2022-12-05T01:43:56;5.50;;;5.00;;
12306;SDS011;6216;51.146;7.008;2022-12-05T01:46:27;5.13;;;4.63;;
12306;SDS011;6216;51.146;7.008;2022-12-05T01:48:57;5.57;;;4.10;;
12306;SDS011;6216;51.146;7.008;2022-12-05T01:51:29;4.97;;;4.57;;
12306;SDS011;6216;51.146;7.008;2022-12-05T01:54:00;4.97;;;4.20;;
12306;SDS011;6216;51.146;7.008;2022-12-05T01:56:28;6.00;;;4.90;;
12306;SDS011;6216;51.146;7.008;2022-12-05T01:58:58;5.50;;;4.63;;
12306;SDS011;6216;51.146;7.008;2022-12-05T02:01:27;4.83;;;4.20;;
12306;SDS011;6216;51.146;7.008;2022-12-05T02:03:56;5.00;;;4.47;;
12306;SDS011;6216;51.146;7.008;2022-12-05T02:06:24;4.73;;;4.23;;
12306;SDS011;6216;51.146;7.008;2022-12-05T02:08:53;5.60;;;4.67;;
12306;SDS011;6216;51.146;7.008;2022-12-05T02:11:23;6.50;;;4.77;;
12306;SDS011;6216;51.146;7.008;2022-12-05T02:13:58;5.67;;;4.53;;
12306;SDS011;6216;51.146;7.008;2022-12-05T02:16:40;4.60;;;4.20;;
12306;SDS011;6216;51.146;7.008;2022-12-05T02:25:25;5.30;;;4.80;;
12306;SDS011;6216;51.146;7.008;2022-12-05T02:28:23;5.27;;;4.47;;
12306;SDS011;6216;51.146;7.008;2022-12-05T02:31:07;5.10;;;4.60;;
12306;SDS011;6216;51.146;7.008;2022-12-05T02:33:41;5.63;;;4.87;;
12306;SDS011;6216;51.146;7.008;2022-12-05T02:36:14;4.60;;;4.20;;
12306;SDS011;6216;51.146;7.008;2022-12-05T02:38:49;5.03;;;4.53;;
12306;SDS011;6216;51.146;7.008;2022-12-05T02:41:26;5.27;;;4.70;;
12306;SDS011;6216;51.146;7.008;2022-12-05T02:44:00;5.10;;;4.60;;
12306;SDS011;6216;51.146;7.008;2022-12-05T02:46:33;4.70;;;4.30;;
12306;SDS011;6216;51.146;7.008;2022-12-05T02:49:05;4.70;;;4.30;;
12306;SDS011;6216;51.146;7.008;2022-12-05T02:51:37;4.87;;;4.40;;
12306;SDS011;6216;51.146;7.008;2022-12-05T02:54:09;4.70;;;4.30;;
12306;SDS011;6216;51.146;7.008;2022-12-05T02:56:40;5.40;;;4.90;;
12306;SDS011;6216;51.146;7.008;2022-12-05T02:59:10;5.00;;;4.50;;
12306;SDS011;6216;51.146;7.008;2022-12-05T03:01:45;5.00;;;4.50;;
12306;SDS011;6216;51.146;7.008;2022-12-05T03:04:14;4.63;;;4.23;;
12306;SDS011;6216;51.146;7.008;2022-12-05T03:06:45;5.13;;;4.60;;
12306;SDS011;6216;51.146;7.008;2022-12-05T03:09:18;5.23;;;4.67;;
12306;SDS011;6216;51.146;7.008;2022-12-05T03:11:50;5.43;;;5.00;;
12306;SDS011;6216;51.146;7.008;2022-12-05T03:14:23;4.97;;;4.57;;
12306;SDS011;6216;51.146;7.008;2022-12-05T03:16:57;5.20;;;4.70;;
12306;SDS011;6216;51.146;7.008;2022-12-05T03:19:29;5.13;;;4.67;;
12306;SDS011;6216;51.146;7.008;2022-12-05T03:22:05;4.97;;;4.57;;
12306;SDS011;6216;51.146;7.008;2022-12-05T03:24:36;4.90;;;4.50;;
12306;SDS011;6216;51.146;7.008;2022-12-05T03:27:07;5.00;;;4.50;;
12306;SDS011;6216;51.146;7.008;2022-12-05T03:29:44;5.10;;;4.70;;
12306;SDS011;6216;51.146;7.008;2022-12-05T03:32:20;5.50;;;5.00;;
12306;SDS011;6216;51.146;7.008;2022-12-05T03:34:55;4.60;;;4.20;;
12306;SDS011;6216;51.146;7.008;2022-12-05T03:37:31;5.20;;;4.70;;
12306;SDS011;6216;51.146;7.008;2022-12-05T03:40:10;5.47;;;4.97;;
12306;SDS011;6216;51.146;7.008;2022-12-05T03:42:46;4.90;;;4.50;;
12306;SDS011;6216;51.146;7.008;2022-12-05T03:45:22;5.23;;;4.73;;
12306;SDS011;6216;51.146;7.008;2022-12-05T03:47:58;5.73;;;4.50;;
12306;SDS011;6216;51.146;7.008;2022-12-05T03:50:33;5.17;;;4.77;;
12306;SDS011;6216;51.146;7.008;2022-12-05T03:53:06;5.40;;;4.90;;
12306;SDS011;6216;51.146;7.008;2022-12-05T03:55:48;5.03;;;4.63;;
12306;SDS011;6216;51.146;7.008;2022-12-05T03:58:26;5.00;;;4.57;;
12306;SDS011;6216;51.146;7.008;2022-12-05T04:00:59;5.03;;;4.53;;
12306;SDS011;6216;51.146;7.008;2022-12-05T04:03:34;5.33;;;4.83;;
12306;SDS011;6216;51.146;7.008;2022-12-05T04:06:08;4.60;;;4.20;;
12306;SDS011;6216;51.146;7.008;2022-12-05T04:08:42;5.10;;;4.60;;
12306;SDS011;6216;51.146;7.008;2022-12-05T04:11:15;4.77;;;4.37;;
12306;SDS011;6216;51.146;7.008;2022-12-05T04:13:47;4.70;;;4.30;;
12306;SDS011;6216;51.146;7.008;2022-12-05T04:16:19;5.67;;;4.50;;
12306;SDS011;6216;51.146;7.008;2022-12-05T04:19:11;4.73;;;4.33;;
12306;SDS011;6216;51.146;7.008;2022-12-05T04:21:44;5.27;;;4.77;;
12306;SDS011;6216;51.146;7.008;2022-12-05T04:24:15;5.57;;;5.07;;
12306;SDS011;6216;51.146;7.008;2022-12-05T04:27:09;5.07;;;4.63;;
12306;SDS011;6216;51.146;7.008;2022-12-05T04:29:48;5.50;;;5.00;;
12306;SDS011;6216;51.146;7.008;2022-12-05T04:32:23;6.43;;;4.83;;
12306;SDS011;6216;51.146;7.008;2022-12-05T04:34:57;5.20;;;4.70;;
12306;SDS011;6216;51.146;7.008;2022-12-05T04:37:32;5.50;;;5.00;;
12306;SDS011;6216;51.146;7.008;2022-12-05T04:40:06;5.20;;;4.77;;
12306;SDS011;6216;51.146;7.008;2022-12-05T04:42:38;4.67;;;4.27;;
12306;SDS011;6216;51.146;7.008;2022-12-05T04:45:09;5.20;;;4.63;;
12306;SDS011;6216;51.146;7.008;2022-12-05T04:47:40;6.00;;;4.77;;
12306;SDS011;6216;51.146;7.008;2022-12-05T04:50:12;5.13;;;4.70;;
12306;SDS011;6216;51.146;7.008;2022-12-05T04:52:42;5.07;;;4.63;;
12306;SDS011;6216;51.146;7.008;2022-12-05T04:55:12;4.90;;;4.50;;
12306;SDS011;6216;51.146;7.008;2022-12-05T04:57:47;4.83;;;4.43;;
12306;SDS011;6216;51.146;7.008;2022-12-05T05:00:18;5.43;;;4.93;;
12306;SDS011;6216;51.146;7.008;2022-12-05T05:02:48;5.40;;;4.90;;
12306;SDS011;6216;51.146;7.008;2022-12-05T05:05:22;5.50;;;5.00;;
12306;SDS011;6216;51.146;7.008;2022-12-05T05:07:50;4.97;;;4.47;;
12306;SDS011;6216;51.146;7.008;2022-12-05T05:10:21;4.97;;;4.57;;
12306;SDS011;6216;51.146;7.008;2022-12-05T05:12:53;4.90;;;4.50;;
12306;SDS011;6216;51.146;7.008;2022-12-05T05:15:21;4.80;;;4.40;;
12306;SDS011;6216;51.146;7.008;2022-12-05T05:17:49;5.43;;;4.60;;
12306;SDS011;6216;51.146;7.008;2022-12-05T05:20:17;5.13;;;4.63;;
12306;SDS011;6216;51.146;7.008;2022-12-05T05:22:53;4.77;;;4.37;;
12306;SDS011;6216;51.146;7.008;2022-12-05T05:25:22;4.60;;;4.20;;
12306;SDS011;6216;51.146;7.008;2022-12-05T05:27:52;5.60;;;5.07;;
12306;SDS011;6216;51.146;7.008;2022-12-05T05:30:21;4.73;;;4.33;;
12306;SDS011;6216;51.146;7.008;2022-12-05T05:32:50;4.87;;;4.47;;
12306;SDS011;6216;51.146;7.008;2022-12-05T05:35:18;4.40;;;4.00;;
12306;SDS011;6216;51.146;7.008;2022-12-05T05:37:46;4.50;;;4.13;;
12306;SDS011;6216;51.146;7.008;2022-12-05T05:40:16;4.90;;;4.50;;
12306;SDS011;6216;51.146;7.008;2022-12-05T05:42:44;4.93;;;4.53;;
12306;SDS011;6216;51.146;7.008;2022-12-05T05:45:13;4.90;;;4.50;;
12306;SDS011;6216;51.146;7.008;2022-12-05T05:47:42;4.40;;;4.00;;
12306;SDS011;6216;51.146;7.008;2022-12-05T05:50:10;4.50;;;4.10;;
12306;SDS011;6216;51.146;7.008;2022-12-05T05:52:46;4.43;;;4.03;;
12306;SDS011;6216;51.146;7.008;2022-12-05T05:55:15;4.80;;;4.40;;
12306;SDS011;6216;51.146;7.008;2022-12-05T05:57:43;4.57;;;4.17;;
12306;SDS011;6216;51.146;7.008;2022-12-05T06:00:12;4.83;;;4.43;;
12306;SDS011;6216;51.146;7.008;2022-12-05T06:02:40;4.53;;;4.13;;
12306;SDS011;6216;51.146;7.008;2022-12-05T06:05:08;4.77;;;4.37;;
12306;SDS011;6216;51.146;7.008;2022-12-05T06:07:36;4.63;;;4.23;;
12306;SDS011;6216;51.146;7.008;2022-12-05T06:10:05;4.57;;;4.17;;
12306;SDS011;6216;51.146;7.008;2022-12-05T06:12:35;4.40;;;4.00;;
12306;SDS011;6216;51.146;7.008;2022-12-05T06:15:03;4.80;;;4.40;;
12306;SDS011;6216;51.146;7.008;2022-12-05T06:17:32;4.80;;;4.40;;
12306;SDS011;6216;51.146;7.008;2022-12-05T06:19:59;4.63;;;4.33;;
12306;SDS011;6216;51.146;7.008;2022-12-05T06:22:28;5.17;;;4.50;;
12306;SDS011;6216;51.146;7.008;2022-12-05T06:24:56;4.17;;;3.87;;
12306;SDS011;6216;51.146;7.008;2022-12-05T06:27:24;4.93;;;4.43;;
12306;SDS011;6216;51.146;7.008;2022-12-05T06:29:53;4.17;;;3.87;;
12306;SDS011;6216;51.146;7.008;2022-12-05T06:32:21;4.93;;;4.53;;
12306;SDS011;6216;51.146;7.008;2022-12-05T06:34:49;4.73;;;4.33;;
12306;SDS011;6216;51.146;7.008;2022-12-05T06:37:17;4.47;;;4.10;;
12306;SDS011;6216;51.146;7.008;2022-12-05T06:39:45;4.20;;;3.90;;
12306;SDS011;6216;51.146;7.008;2022-12-05T06:42:13;4.20;;;3.90;;
12306;SDS011;6216;51.146;7.008;2022-12-05T06:44:41;4.40;;;4.00;;
12306;SDS011;6216;51.146;7.008;2022-12-05T06:47:10;4.40;;;4.03;;
12306;SDS011;6216;51.146;7.008;2022-12-05T06:49:38;4.03;;;3.73;;
12306;SDS011;6216;51.146;7.008;2022-12-05T06:52:06;4.43;;;4.03;;
12306;SDS011;6216;51.146;7.008;2022-12-05T06:54:34;4.20;;;3.90;;
12306;SDS011;6216;51.146;7.008;2022-12-05T06:57:02;4.50;;;4.10;;
12306;SDS011;6216;51.146;7.008;2022-12-05T06:59:30;4.53;;;4.13;;
12306;SDS011;6216;51.146;7.008;2022-12-05T07:01:58;4.33;;;3.93;;
12306;SDS011;6216;51.146;7.008;2022-12-05T07:04:27;4.23;;;3.90;;
12306;SDS011;6216;51.146;7.008;2022-12-05T07:06:55;4.07;;;3.77;;
12306;SDS011;6216;51.146;7.008;2022-12-05T07:09:24;4.70;;;4.30;;
12306;SDS011;6216;51.146;7.008;2022-12-05T07:12:11;4.73;;;3.53;;
12306;SDS011;6216;51.146;7.008;2022-12-05T07:14:40;7.33;;;3.83;;
12306;SDS011;6216;51.146;7.008;2022-12-05T07:17:13;4.60;;;4.20;;
12306;SDS011;6216;51.146;7.008;2022-12-05T07:19:42;4.70;;;4.13;;
12306;SDS011;6216;51.146;7.008;2022-12-05T07:22:10;6.73;;;4.30;;
12306;SDS011;6216;51.146;7.008;2022-12-05T07:24:41;8.10;;;4.10;;
12306;SDS011;6216;51.146;7.008;2022-12-05T07:27:09;9.00;;;4.50;;
12306;SDS011;6216;51.146;7.008;2022-12-05T07:29:37;7.40;;;4.80;;
12306;SDS011;6216;51.146;7.008;2022-12-05T07:32:05;9.27;;;5.00;;
12306;SDS011;6216;51.146;7.008;2022-12-05T07:34:34;6.50;;;4.23;;
12306;SDS011;6216;51.146;7.008;2022-12-05T07:37:05;7.53;;;4.43;;
12306;SDS011;6216;51.146;7.008;2022-12-05T07:39:33;7.33;;;4.00;;
12306;SDS011;6216;51.146;7.008;2022-12-05T07:42:01;4.23;;;3.93;;
12306;SDS011;6216;51.146;7.008;2022-12-05T07:44:28;5.40;;;4.27;;
12306;SDS011;6216;51.146;7.008;2022-12-05T07:46:57;4.17;;;3.77;;
12306;SDS011;6216;51.146;7.008;2022-12-05T07:49:25;6.87;;;4.20;;
12306;SDS011;6216;51.146;7.008;2022-12-05T07:51:53;7.43;;;4.30;;
12306;SDS011;6216;51.146;7.008;2022-12-05T07:54:22;5.27;;;3.90;;
12306;SDS011;6216;51.146;7.008;2022-12-05T07:56:50;5.67;;;3.93;;
12306;SDS011;6216;51.146;7.008;2022-12-05T07:59:18;4.37;;;4.07;;
12306;SDS011;6216;51.146;7.008;2022-12-05T08:01:46;5.27;;;4.53;;
12306;SDS011;6216;51.146;7.008;2022-12-05T08:04:14;6.25;;;4.68;;
12306;SDS011;6216;51.146;7.008;2022-12-05T08:06:42;6.47;;;4.30;;
12306;SDS011;6216;51.146;7.008;2022-12-05T08:09:10;6.57;;;4.13;;
12306;SDS011;6216;51.146;7.008;2022-12-05T08:11:39;5.43;;;3.63;;
12306;SDS011;6216;51.146;7.008;2022-12-05T08:14:07;4.70;;;4.23;;
12306;SDS011;6216;51.146;7.008;2022-12-05T08:16:35;4.27;;;3.80;;
12306;SDS011;6216;51.146;7.008;2022-12-05T08:19:04;5.73;;;4.33;;
12306;SDS011;6216;51.146;7.008;2022-12-05T08:21:33;15.40;;;4.10;;
12306;SDS011;6216;51.146;7.008;2022-12-05T08:24:03;13.00;;;4.83;;
12306;SDS011;6216;51.146;7.008;2022-12-05T08:26:31;9.83;;;4.10;;
12306;SDS011;6216;51.146;7.008;2022-12-05T08:29:03;9.33;;;4.07;;
12306;SDS011;6216;51.146;7.008;2022-12-05T08:31:33;7.17;;;4.30;;
12306;SDS011;6216;51.146;7.008;2022-12-05T08:34:02;5.43;;;3.80;;
12306;SDS011;6216;51.146;7.008;2022-12-05T08:36:30;9.60;;;4.10;;
12306;SDS011;6216;51.146;7.008;2022-12-05T08:38:58;7.30;;;4.03;;
12306;SDS011;6216;51.146;7.008;2022-12-05T08:41:27;18.80;;;4.53;;
12306;SDS011;6216;51.146;7.008;2022-12-05T08:43:56;5.40;;;3.67;;
12306;SDS011;6216;51.146;7.008;2022-12-05T08:46:27;11.50;;;3.57;;
12306;SDS011;6216;51.146;7.008;2022-12-05T08:48:55;9.97;;;4.57;;
12306;SDS011;6216;51.146;7.008;2022-12-05T08:51:23;7.33;;;4.30;;
12306;SDS011;6216;51.146;7.008;2022-12-05T08:53:51;6.10;;;4.57;;
12306;SDS011;6216;51.146;7.008;2022-12-05T08:56:21;9.83;;;4.40;;
12306;SDS011;6216;51.146;7.008;2022-12-05T08:58:52;9.20;;;4.13;;
12306;SDS011;6216;51.146;7.008;2022-12-05T09:01:31;13.43;;;4.70;;
12306;SDS011;6216;51.146;7.008;2022-12-05T09:04:03;7.70;;;4.17;;
12306;SDS011;6216;51.146;7.008;2022-12-05T09:06:32;7.17;;;4.30;;
12306;SDS011;6216;51.146;7.008;2022-12-05T09:09:01;10.20;;;4.53;;
12306;SDS011;6216;51.146;7.008;2022-12-05T09:11:31;8.80;;;4.60;;
12306;SDS011;6216;51.146;7.008;2022-12-05T09:14:01;19.07;;;4.80;;
12306;SDS011;6216;51.146;7.008;2022-12-05T09:16:32;11.57;;;5.03;;
12306;SDS011;6216;51.146;7.008;2022-12-05T09:19:04;14.90;;;4.17;;
12306;SDS011;6216;51.146;7.008;2022-12-05T09:21:33;17.87;;;4.33;;
12306;SDS011;6216;51.146;7.008;2022-12-05T09:24:00;17.07;;;4.43;;
12306;SDS011;6216;51.146;7.008;2022-12-05T09:26:28;12.53;;;4.13;;
12306;SDS011;6216;51.146;7.008;2022-12-05T09:28:56;14.60;;;4.33;;
12306;SDS011;6216;51.146;7.008;2022-12-05T09:31:25;13.07;;;4.57;;
12306;SDS011;6216;51.146;7.008;2022-12-05T09:33:54;16.93;;;4.60;;
12306;SDS011;6216;51.146;7.008;2022-12-05T09:36:23;8.47;;;4.53;;
12306;SDS011;6216;51.146;7.008;2022-12-05T09:38:53;14.17;;;4.50;;
12306;SDS011;6216;51.146;7.008;2022-12-05T09:41:26;12.73;;;4.57;;
12306;SDS011;6216;51.146;7.008;2022-12-05T09:44:23;13.10;;;4.90;;
12306;SDS011;6216;51.146;7.008;2022-12-05T09:46:59;24.00;;;8.93;;
12306;SDS011;6216;51.146;7.008;2022-12-05T09:49:31;23.13;;;7.50;;
12306;SDS011;6216;51.146;7.008;2022-12-05T09:52:04;28.47;;;8.70;;
12306;SDS011;6216;51.146;7.008;2022-12-05T09:54:32;30.47;;;9.83;;
12306;SDS011;6216;51.146;7.008;2022-12-05T09:57:00;27.33;;;9.00;;
12306;SDS011;6216;51.146;7.008;2022-12-05T09:59:31;27.90;;;8.40;;
12306;SDS011;6216;51.146;7.008;2022-12-05T10:02:00;33.53;;;9.93;;
12306;SDS011;6216;51.146;7.008;2022-12-05T10:04:47;28.87;;;9.93;;
12306;SDS011;6216;51.146;7.008;2022-12-05T10:07:27;38.40;;;11.90;;
12306;SDS011;6216;51.146;7.008;2022-12-05T10:10:02;29.80;;;11.40;;
12306;SDS011;6216;51.146;7.008;2022-12-05T10:12:49;28.47;;;11.77;;
12306;SDS011;6216;51.146;7.008;2022-12-05T10:15:28;33.67;;;11.97;;
12306;SDS011;6216;51.146;7.008;2022-12-05T10:18:00;34.33;;;11.00;;
12306;SDS011;6216;51.146;7.008;2022-12-05T10:20:33;29.47;;;11.10;;
12306;SDS011;6216;51.146;7.008;2022-12-05T10:23:14;33.57;;;11.57;;
12306;SDS011;6216;51.146;7.008;2022-12-05T10:26:08;35.07;;;13.70;;
12306;SDS011;6216;51.146;7.008;2022-12-05T10:28:41;34.77;;;13.73;;
12306;SDS011;6216;51.146;7.008;2022-12-05T10:31:17;32.87;;;13.03;;
12306;SDS011;6216;51.146;7.008;2022-12-05T10:33:52;43.37;;;15.33;;
12306;SDS011;6216;51.146;7.008;2022-12-05T10:36:26;34.67;;;14.43;;
12306;SDS011;6216;51.146;7.008;2022-12-05T10:38:54;29.17;;;13.27;;
12306;SDS011;6216;51.146;7.008;2022-12-05T10:41:23;35.77;;;14.17;;
12306;SDS011;6216;51.146;7.008;2022-12-05T10:43:51;29.30;;;15.83;;
12306;SDS011;6216;51.146;7.008;2022-12-05T10:46:19;41.80;;;17.57;;
12306;SDS011;6216;51.146;7.008;2022-12-05T10:48:47;44.13;;;19.57;;
12306;SDS011;6216;51.146;7.008;2022-12-05T10:51:16;49.00;;;20.23;;
12306;SDS011;6216;51.146;7.008;2022-12-05T10:53:48;41.30;;;16.83;;
12306;SDS011;6216;51.146;7.008;2022-12-05T10:59:09;11.23;;;10.00;;
12306;SDS011;6216;51.146;7.008;2022-12-05T11:01:42;13.33;;;9.80;;
12306;SDS011;6216;51.146;7.008;2022-12-05T11:04:24;19.03;;;11.70;;
12306;SDS011;6216;51.146;7.008;2022-12-05T11:06:54;22.20;;;11.77;;
12306;SDS011;6216;51.146;7.008;2022-12-05T11:09:26;15.43;;;10.63;;
12306;SDS011;6216;51.146;7.008;2022-12-05T11:11:57;17.43;;;10.37;;
12306;SDS011;6216;51.146;7.008;2022-12-05T11:14:29;16.43;;;9.70;;
12306;SDS011;6216;51.146;7.008;2022-12-05T11:16:59;22.23;;;10.03;;
12306;SDS011;6216;51.146;7.008;2022-12-05T11:19:29;23.13;;;8.63;;
12306;SDS011;6216;51.146;7.008;2022-12-05T11:21:58;14.73;;;8.57;;
12306;SDS011;6216;51.146;7.008;2022-12-05T11:24:28;19.30;;;8.27;;
12306;SDS011;6216;51.146;7.008;2022-12-05T11:26:58;27.57;;;8.30;;
12306;SDS011;6216;51.146;7.008;2022-12-05T11:29:52;16.40;;;7.50;;
12306;SDS011;6216;51.146;7.008;2022-12-05T11:32:23;20.30;;;7.77;;
12306;SDS011;6216;51.146;7.008;2022-12-05T11:34:52;18.50;;;8.00;;
12306;SDS011;6216;51.146;7.008;2022-12-05T11:37:28;33.03;;;8.60;;
12306;SDS011;6216;51.146;7.008;2022-12-05T11:40:05;34.47;;;9.40;;
12306;SDS011;6216;51.146;7.008;2022-12-05T11:42:42;34.40;;;12.60;;
12306;SDS011;6216;51.146;7.008;2022-12-05T11:45:27;30.27;;;9.73;;
12306;SDS011;6216;51.146;7.008;2022-12-05T11:48:09;28.00;;;10.43;;
12306;SDS011;6216;51.146;7.008;2022-12-05T11:51:05;22.67;;;10.63;;
12306;SDS011;6216;51.146;7.008;2022-12-05T11:57:13;23.73;;;10.70;;
12306;SDS011;6216;51.146;7.008;2022-12-05T12:00:06;12.20;;;9.07;;
12306;SDS011;6216;51.146;7.008;2022-12-05T12:02:53;13.07;;;9.37;;
12306;SDS011;6216;51.146;7.008;2022-12-05T12:06:00;16.83;;;8.53;;
12306;SDS011;6216;51.146;7.008;2022-12-05T12:08:40;15.00;;;7.97;;
12306;SDS011;6216;51.146;7.008;2022-12-05T12:11:23;12.33;;;8.20;;
12306;SDS011;6216;51.146;7.008;2022-12-05T12:13:59;13.77;;;7.83;;
12306;SDS011;6216;51.146;7.008;2022-12-05T12:16:33;11.67;;;7.90;;
12306;SDS011;6216;51.146;7.008;2022-12-05T12:19:15;15.47;;;7.77;;
12306;SDS011;6216;51.146;7.008;2022-12-05T12:21:58;13.20;;;7.97;;
12306;SDS011;6216;51.146;7.008;2022-12-05T12:24:46;34.17;;;8.20;;
12306;SDS011;6216;51.146;7.008;2022-12-05T12:27:26;15.50;;;7.10;;
12306;SDS011;6216;51.146;7.008;2022-12-05T12:30:05;9.40;;;7.40;;
12306;SDS011;6216;51.146;7.008;2022-12-05T12:32:41;10.60;;;7.93;;
12306;SDS011;6216;51.146;7.008;2022-12-05T12:38:08;9.93;;;7.20;;
12306;SDS011;6216;51.146;7.008;2022-12-05T12:40:50;12.47;;;7.47;;
12306;SDS011;6216;51.146;7.008;2022-12-05T12:43:28;11.47;;;7.40;;
12306;SDS011;6216;51.146;7.008;2022-12-05T12:46:26;9.43;;;6.60;;
12306;SDS011;6216;51.146;7.008;2022-12-05T12:49:10;8.37;;;6.80;;
12306;SDS011;6216;51.146;7.008;2022-12-05T12:51:57;8.00;;;6.63;;
12306;SDS011;6216;51.146;7.008;2022-12-05T12:54:33;9.73;;;6.57;;
12306;SDS011;6216;51.146;7.008;2022-12-05T12:57:31;14.27;;;7.07;;
12306;SDS011;6216;51.146;7.008;2022-12-05T13:00:10;9.40;;;6.63;;
12306;SDS011;6216;51.146;7.008;2022-12-05T13:02:48;10.60;;;6.53;;
12306;SDS011;6216;51.146;7.008;2022-12-05T13:05:22;9.43;;;6.57;;
12306;SDS011;6216;51.146;7.008;2022-12-05T13:07:57;6.77;;;6.00;;
12306;SDS011;6216;51.146;7.008;2022-12-05T13:10:31;10.13;;;6.23;;
12306;SDS011;6216;51.146;7.008;2022-12-05T13:13:03;11.80;;;6.23;;
12306;SDS011;6216;51.146;7.008;2022-12-05T13:15:33;13.20;;;6.23;;
12306;SDS011;6216;51.146;7.008;2022-12-05T13:18:13;11.57;;;6.03;;
12306;SDS011;6216;51.146;7.008;2022-12-05T13:20:43;9.53;;;6.50;;
12306;SDS011;6216;51.146;7.008;2022-12-05T13:23:14;13.20;;;6.37;;
12306;SDS011;6216;51.146;7.008;2022-12-05T13:25:44;6.70;;;5.47;;
12306;SDS011;6216;51.146;7.008;2022-12-05T13:28:20;9.10;;;6.13;;
12306;SDS011;6216;51.146;7.008;2022-12-05T13:30:53;7.67;;;5.07;;
12306;SDS011;6216;51.146;7.008;2022-12-05T13:33:30;9.47;;;5.87;;
12306;SDS011;6216;51.146;7.008;2022-12-05T13:36:04;18.10;;;5.90;;
12306;SDS011;6216;51.146;7.008;2022-12-05T13:38:59;9.83;;;5.40;;
12306;SDS011;6216;51.146;7.008;2022-12-05T13:41:47;10.60;;;6.20;;
12306;SDS011;6216;51.146;7.008;2022-12-05T13:44:35;6.73;;;5.33;;
12306;SDS011;6216;51.146;7.008;2022-12-05T13:47:16;12.47;;;6.00;;
12306;SDS011;6216;51.146;7.008;2022-12-05T13:50:01;11.17;;;5.97;;
12306;SDS011;6216;51.146;7.008;2022-12-05T13:52:39;11.37;;;5.70;;
12306;SDS011;6216;51.146;7.008;2022-12-05T13:55:15;11.17;;;5.87;;
12306;SDS011;6216;51.146;7.008;2022-12-05T13:57:56;8.37;;;4.97;;
12306;SDS011;6216;51.146;7.008;2022-12-05T14:00:28;11.87;;;5.00;;
12306;SDS011;6216;51.146;7.008;2022-12-05T14:03:14;11.60;;;5.83;;
12306;SDS011;6216;51.146;7.008;2022-12-05T14:05:50;13.93;;;6.23;;
12306;SDS011;6216;51.146;7.008;2022-12-05T14:11:19;14.63;;;5.67;;
12306;SDS011;6216;51.146;7.008;2022-12-05T14:13:47;7.53;;;5.23;;
12306;SDS011;6216;51.146;7.008;2022-12-05T14:25:20;11.93;;;6.20;;
12306;SDS011;6216;51.146;7.008;2022-12-05T14:27:57;12.47;;;5.33;;
12306;SDS011;6216;51.146;7.008;2022-12-05T14:30:30;10.13;;;5.00;;
12306;SDS011;6216;51.146;7.008;2022-12-05T14:33:12;9.80;;;5.40;;
12306;SDS011;6216;51.146;7.008;2022-12-05T14:35:43;11.10;;;5.23;;
12306;SDS011;6216;51.146;7.008;2022-12-05T14:38:21;7.53;;;4.80;;
12306;SDS011;6216;51.146;7.008;2022-12-05T14:40:54;13.03;;;5.77;;
12306;SDS011;6216;51.146;7.008;2022-12-05T14:43:32;6.87;;;5.17;;
12306;SDS011;6216;51.146;7.008;2022-12-05T14:46:01;10.00;;;5.63;;
12306;SDS011;6216;51.146;7.008;2022-12-05T14:48:31;11.50;;;5.20;;
12306;SDS011;6216;51.146;7.008;2022-12-05T14:54:10;17.57;;;5.30;;
12306;SDS011;6216;51.146;7.008;2022-12-05T14:56:41;10.27;;;5.40;;
12306;SDS011;6216;51.146;7.008;2022-12-05T14:59:16;9.87;;;4.70;;
12306;SDS011;6216;51.146;7.008;2022-12-05T15:01:49;11.33;;;5.37;;
12306;SDS011;6216;51.146;7.008;2022-12-05T15:04:22;11.40;;;5.43;;
12306;SDS011;6216;51.146;7.008;2022-12-05T15:06:56;7.63;;;5.23;;
12306;SDS011;6216;51.146;7.008;2022-12-05T15:09:29;10.90;;;5.00;;
12306;SDS011;6216;51.146;7.008;2022-12-05T15:12:04;11.07;;;5.00;;
12306;SDS011;6216;51.146;7.008;2022-12-05T15:14:38;10.57;;;5.57;;
12306;SDS011;6216;51.146;7.008;2022-12-05T15:17:14;11.43;;;5.47;;
12306;SDS011;6216;51.146;7.008;2022-12-05T15:19:50;7.30;;;4.60;;
12306;SDS011;6216;51.146;7.008;2022-12-05T15:22:24;11.33;;;5.40;;
12306;SDS011;6216;51.146;7.008;2022-12-05T15:24:55;10.93;;;5.27;;
12306;SDS011;6216;51.146;7.008;2022-12-05T15:27:23;9.30;;;5.17;;
12306;SDS011;6216;51.146;7.008;2022-12-05T15:29:52;9.90;;;4.93;;
12306;SDS011;6216;51.146;7.008;2022-12-05T15:32:23;8.83;;;4.57;;
12306;SDS011;6216;51.146;7.008;2022-12-05T15:34:55;7.30;;;4.60;;
12306;SDS011;6216;51.146;7.008;2022-12-05T15:37:31;13.93;;;5.27;;
12306;SDS011;6216;51.146;7.008;2022-12-05T15:40:08;10.37;;;4.57;;
12306;SDS011;6216;51.146;7.008;2022-12-05T15:42:40;7.23;;;4.77;;
12306;SDS011;6216;51.146;7.008;2022-12-05T15:45:20;7.63;;;5.00;;
12306;SDS011;6216;51.146;7.008;2022-12-05T15:47:50;6.87;;;4.47;;
12306;SDS011;6216;51.146;7.008;2022-12-05T15:50:21;11.17;;;4.77;;
12306;SDS011;6216;51.146;7.008;2022-12-05T15:52:58;11.27;;;4.73;;
12306;SDS011;6216;51.146;7.008;2022-12-05T15:55:32;9.53;;;4.80;;
12306;SDS011;6216;51.146;7.008;2022-12-05T15:58:05;8.63;;;4.03;;
12306;SDS011;6216;51.146;7.008;2022-12-05T16:00:39;9.03;;;4.40;;